Hovedside
METAR-TAF:

METAR-TAF

Lufthavner :

Odense, Danmark

Hans Christian Andersen Airport

breddegrad: 55-29N, lengdegrad: 010-20E, høyde over havet: 17 m

Gjeldene værobservasjon

Denne rapporten ble laget for 54 minutter siden, klokken 19:50 UTC
Vind 9 kt fra Vest-sørvest
Temperatur 6°C
Luftfuktighet 93%
Trykk 1026 hPa
Sikt: 7000 m
Brutte skyer i en høyde av 400 ft

METAR: EKOD 261950Z 25009KT 7000 BKN004 06/05 Q1026

Tid: 22:44 (20:44 UTC)

Varsel

Denne rapporten ble laget for 8 timer og 48 minutter siden, klokken 11:56 UTC
Varsel gyldig fra 26. klokken 12 UTC til 26. klokken 16 UTC
Vind 5 kt fra Sørvest
Sikt 10 km eller mer
Få skyer i en høyde av 2000 ft

TAF: EKOD 261156Z 2612/2616 23005KT 9999 FEW020

Værobservasjoner og værvarsel for over 4000 flyplasser (METAR- og TAF-rapporter).

Tilgjengelige stasjoner er representert av de røde og gule prikkene på kartet.

Hold musepekeren over prikken for å se navnet på stasjonen.

Klikk så for å se værobservasjoner og -varsler.

For å forandre kartet kan du klikke på den grønne knappen med svart kryss for å zoome inn, på den grønne knappen med strek for å zoome ut, eller på de grønne pilene for å se tilstøtende kart.


METAR-TAF: